sensor_id;sensor_type;location;lat;lon;timestamp;P1;durP1;ratioP1;P2;durP2;ratioP2
54929;SDS011;40833;53.238;6.576;2022-08-01T00:01:34;3.97;;;2.95;;
54929;SDS011;40833;53.238;6.576;2022-08-01T00:04:01;6.30;;;2.65;;
54929;SDS011;40833;53.238;6.576;2022-08-01T00:06:26;7.93;;;3.28;;
54929;SDS011;40833;53.238;6.576;2022-08-01T00:08:52;4.82;;;3.13;;
54929;SDS011;40833;53.238;6.576;2022-08-01T00:11:18;6.35;;;3.90;;
54929;SDS011;40833;53.238;6.576;2022-08-01T00:13:43;8.23;;;3.50;;
54929;SDS011;40833;53.238;6.576;2022-08-01T00:16:09;4.40;;;3.47;;
54929;SDS011;40833;53.238;6.576;2022-08-01T00:18:35;8.65;;;3.55;;
54929;SDS011;40833;53.238;6.576;2022-08-01T00:21:01;11.32;;;3.92;;
54929;SDS011;40833;53.238;6.576;2022-08-01T00:23:28;5.32;;;4.13;;
54929;SDS011;40833;53.238;6.576;2022-08-01T00:25:53;6.93;;;3.83;;
54929;SDS011;40833;53.238;6.576;2022-08-01T00:28:19;5.78;;;3.95;;
54929;SDS011;40833;53.238;6.576;2022-08-01T00:30:45;6.75;;;3.50;;
54929;SDS011;40833;53.238;6.576;2022-08-01T00:33:10;5.63;;;3.70;;
54929;SDS011;40833;53.238;6.576;2022-08-01T00:35:36;8.70;;;4.07;;
54929;SDS011;40833;53.238;6.576;2022-08-01T00:38:02;6.97;;;4.07;;
54929;SDS011;40833;53.238;6.576;2022-08-01T00:40:28;11.45;;;4.32;;
54929;SDS011;40833;53.238;6.576;2022-08-01T00:42:53;8.85;;;4.22;;
54929;SDS011;40833;53.238;6.576;2022-08-01T00:45:19;7.03;;;3.80;;
54929;SDS011;40833;53.238;6.576;2022-08-01T00:47:45;6.60;;;3.95;;
54929;SDS011;40833;53.238;6.576;2022-08-01T00:50:11;4.28;;;3.30;;
54929;SDS011;40833;53.238;6.576;2022-08-01T00:52:37;7.93;;;3.00;;
54929;SDS011;40833;53.238;6.576;2022-08-01T00:55:05;12.73;;;2.70;;
54929;SDS011;40833;53.238;6.576;2022-08-01T00:57:31;4.57;;;2.58;;
54929;SDS011;40833;53.238;6.576;2022-08-01T01:00:01;4.95;;;2.33;;
54929;SDS011;40833;53.238;6.576;2022-08-01T01:02:26;5.03;;;2.15;;
54929;SDS011;40833;53.238;6.576;2022-08-01T01:04:52;5.88;;;2.53;;
54929;SDS011;40833;53.238;6.576;2022-08-01T01:15:44;7.03;;;1.90;;
54929;SDS011;40833;53.238;6.576;2022-08-01T01:31:40;7.15;;;1.90;;
54929;SDS011;40833;53.238;6.576;2022-08-01T01:34:15;5.32;;;1.92;;
54929;SDS011;40833;53.238;6.576;2022-08-01T01:36:44;7.03;;;1.95;;
54929;SDS011;40833;53.238;6.576;2022-08-01T01:39:13;10.50;;;2.30;;
54929;SDS011;40833;53.238;6.576;2022-08-01T01:41:40;14.55;;;2.28;;
54929;SDS011;40833;53.238;6.576;2022-08-01T01:44:09;6.43;;;1.63;;
54929;SDS011;40833;53.238;6.576;2022-08-01T01:46:41;8.20;;;1.73;;
54929;SDS011;40833;53.238;6.576;2022-08-01T01:49:08;12.40;;;2.30;;
54929;SDS011;40833;53.238;6.576;2022-08-01T01:51:35;12.25;;;2.30;;
54929;SDS011;40833;53.238;6.576;2022-08-01T01:54:04;6.68;;;1.63;;
54929;SDS011;40833;53.238;6.576;2022-08-01T01:56:33;6.40;;;1.27;;
54929;SDS011;40833;53.238;6.576;2022-08-01T01:59:01;8.52;;;1.48;;
54929;SDS011;40833;53.238;6.576;2022-08-01T02:01:32;8.05;;;1.35;;
54929;SDS011;40833;53.238;6.576;2022-08-01T02:03:59;10.27;;;1.70;;
54929;SDS011;40833;53.238;6.576;2022-08-01T02:06:27;6.75;;;1.52;;
54929;SDS011;40833;53.238;6.576;2022-08-01T02:08:54;7.20;;;1.50;;
54929;SDS011;40833;53.238;6.576;2022-08-01T02:11:21;9.80;;;1.00;;
54929;SDS011;40833;53.238;6.576;2022-08-01T02:13:53;5.20;;;1.20;;
54929;SDS011;40833;53.238;6.576;2022-08-01T02:16:24;9.88;;;1.15;;
54929;SDS011;40833;53.238;6.576;2022-08-01T02:18:52;8.57;;;1.35;;
54929;SDS011;40833;53.238;6.576;2022-08-01T02:21:29;5.43;;;1.08;;
54929;SDS011;40833;53.238;6.576;2022-08-01T02:24:05;6.72;;;1.40;;
54929;SDS011;40833;53.238;6.576;2022-08-01T02:26:44;10.10;;;1.35;;
54929;SDS011;40833;53.238;6.576;2022-08-01T02:29:15;10.82;;;1.70;;
54929;SDS011;40833;53.238;6.576;2022-08-01T02:31:46;17.35;;;1.98;;
54929;SDS011;40833;53.238;6.576;2022-08-01T02:34:17;16.65;;;2.65;;
54929;SDS011;40833;53.238;6.576;2022-08-01T02:36:44;16.30;;;2.30;;
54929;SDS011;40833;53.238;6.576;2022-08-01T02:39:13;15.37;;;2.70;;
54929;SDS011;40833;53.238;6.576;2022-08-01T02:41:41;10.27;;;2.37;;
54929;SDS011;40833;53.238;6.576;2022-08-01T02:44:10;19.25;;;2.70;;
54929;SDS011;40833;53.238;6.576;2022-08-01T02:46:51;12.35;;;2.47;;
54929;SDS011;40833;53.238;6.576;2022-08-01T02:49:20;9.40;;;2.50;;
54929;SDS011;40833;53.238;6.576;2022-08-01T02:51:48;12.77;;;2.27;;
54929;SDS011;40833;53.238;6.576;2022-08-01T02:54:14;15.73;;;2.60;;
54929;SDS011;40833;53.238;6.576;2022-08-01T02:56:42;7.90;;;2.25;;
54929;SDS011;40833;53.238;6.576;2022-08-01T02:59:10;8.93;;;2.53;;
54929;SDS011;40833;53.238;6.576;2022-08-01T03:01:39;13.82;;;2.40;;
54929;SDS011;40833;53.238;6.576;2022-08-01T03:04:06;12.77;;;2.90;;
54929;SDS011;40833;53.238;6.576;2022-08-01T03:06:34;15.53;;;2.97;;
54929;SDS011;40833;53.238;6.576;2022-08-01T03:09:02;11.00;;;2.47;;
54929;SDS011;40833;53.238;6.576;2022-08-01T03:11:29;11.27;;;2.90;;
54929;SDS011;40833;53.238;6.576;2022-08-01T03:13:56;15.10;;;3.57;;
54929;SDS011;40833;53.238;6.576;2022-08-01T03:16:23;10.43;;;3.10;;
54929;SDS011;40833;53.238;6.576;2022-08-01T03:18:55;12.70;;;2.87;;
54929;SDS011;40833;53.238;6.576;2022-08-01T03:21:23;10.60;;;3.65;;
54929;SDS011;40833;53.238;6.576;2022-08-01T03:23:52;15.73;;;2.70;;
54929;SDS011;40833;53.238;6.576;2022-08-01T03:26:23;12.48;;;2.30;;
54929;SDS011;40833;53.238;6.576;2022-08-01T03:28:59;15.30;;;3.33;;
54929;SDS011;40833;53.238;6.576;2022-08-01T03:31:31;11.10;;;2.75;;
54929;SDS011;40833;53.238;6.576;2022-08-01T03:34:00;9.73;;;1.90;;
54929;SDS011;40833;53.238;6.576;2022-08-01T03:36:26;13.05;;;2.83;;
54929;SDS011;40833;53.238;6.576;2022-08-01T03:38:54;14.75;;;2.47;;
54929;SDS011;40833;53.238;6.576;2022-08-01T03:41:24;7.85;;;2.35;;
54929;SDS011;40833;53.238;6.576;2022-08-01T03:43:58;12.07;;;2.28;;
54929;SDS011;40833;53.238;6.576;2022-08-01T03:46:30;11.95;;;2.65;;
54929;SDS011;40833;53.238;6.576;2022-08-01T03:49:03;15.93;;;2.78;;
54929;SDS011;40833;53.238;6.576;2022-08-01T03:51:35;13.23;;;2.55;;
54929;SDS011;40833;53.238;6.576;2022-08-01T03:54:03;12.30;;;2.17;;
54929;SDS011;40833;53.238;6.576;2022-08-01T03:56:30;10.43;;;2.30;;
54929;SDS011;40833;53.238;6.576;2022-08-01T03:58:59;9.93;;;1.73;;
54929;SDS011;40833;53.238;6.576;2022-08-01T04:01:26;11.25;;;1.70;;
54929;SDS011;40833;53.238;6.576;2022-08-01T04:03:54;12.20;;;1.90;;
54929;SDS011;40833;53.238;6.576;2022-08-01T04:06:20;11.93;;;1.83;;
54929;SDS011;40833;53.238;6.576;2022-08-01T04:08:46;11.50;;;2.73;;
54929;SDS011;40833;53.238;6.576;2022-08-01T04:11:20;11.17;;;1.80;;
54929;SDS011;40833;53.238;6.576;2022-08-01T04:13:51;14.10;;;1.90;;
54929;SDS011;40833;53.238;6.576;2022-08-01T04:16:18;22.13;;;3.63;;
54929;SDS011;40833;53.238;6.576;2022-08-01T04:18:44;15.90;;;1.90;;
54929;SDS011;40833;53.238;6.576;2022-08-01T04:21:11;14.80;;;2.33;;
54929;SDS011;40833;53.238;6.576;2022-08-01T04:23:37;9.13;;;1.60;;
54929;SDS011;40833;53.238;6.576;2022-08-01T04:26:06;18.40;;;3.40;;
54929;SDS011;40833;53.238;6.576;2022-08-01T04:28:34;12.50;;;2.07;;
54929;SDS011;40833;53.238;6.576;2022-08-01T04:31:06;13.60;;;2.40;;
54929;SDS011;40833;53.238;6.576;2022-08-01T04:33:38;14.00;;;2.33;;
54929;SDS011;40833;53.238;6.576;2022-08-01T04:36:07;12.27;;;2.53;;
54929;SDS011;40833;53.238;6.576;2022-08-01T04:38:37;18.83;;;2.40;;
54929;SDS011;40833;53.238;6.576;2022-08-01T04:41:05;10.77;;;1.80;;
54929;SDS011;40833;53.238;6.576;2022-08-01T04:43:33;13.03;;;1.93;;
54929;SDS011;40833;53.238;6.576;2022-08-01T04:45:59;16.50;;;1.83;;
54929;SDS011;40833;53.238;6.576;2022-08-01T04:48:28;15.47;;;2.03;;
54929;SDS011;40833;53.238;6.576;2022-08-01T04:50:56;16.53;;;2.07;;
54929;SDS011;40833;53.238;6.576;2022-08-01T04:53:22;21.57;;;2.80;;
54929;SDS011;40833;53.238;6.576;2022-08-01T04:55:48;21.83;;;3.37;;
54929;SDS011;40833;53.238;6.576;2022-08-01T04:58:14;15.03;;;2.57;;
54929;SDS011;40833;53.238;6.576;2022-08-01T05:00:40;20.33;;;2.03;;
54929;SDS011;40833;53.238;6.576;2022-08-01T05:03:06;14.50;;;2.03;;
54929;SDS011;40833;53.238;6.576;2022-08-01T05:05:31;15.63;;;2.23;;
54929;SDS011;40833;53.238;6.576;2022-08-01T05:07:57;15.73;;;2.07;;
54929;SDS011;40833;53.238;6.576;2022-08-01T05:10:23;15.07;;;2.17;;
54929;SDS011;40833;53.238;6.576;2022-08-01T05:12:48;19.20;;;2.50;;
54929;SDS011;40833;53.238;6.576;2022-08-01T05:15:15;17.73;;;2.03;;
54929;SDS011;40833;53.238;6.576;2022-08-01T05:17:44;19.07;;;2.37;;
54929;SDS011;40833;53.238;6.576;2022-08-01T05:20:11;15.47;;;2.17;;
54929;SDS011;40833;53.238;6.576;2022-08-01T05:22:37;20.97;;;2.10;;
54929;SDS011;40833;53.238;6.576;2022-08-01T05:25:03;18.17;;;2.53;;
54929;SDS011;40833;53.238;6.576;2022-08-01T05:27:36;16.30;;;2.00;;
54929;SDS011;40833;53.238;6.576;2022-08-01T05:30:08;25.65;;;2.80;;
54929;SDS011;40833;53.238;6.576;2022-08-01T05:32:34;17.97;;;2.00;;
54929;SDS011;40833;53.238;6.576;2022-08-01T05:35:01;19.15;;;2.28;;
54929;SDS011;40833;53.238;6.576;2022-08-01T05:37:27;19.83;;;2.40;;
54929;SDS011;40833;53.238;6.576;2022-08-01T05:39:53;20.50;;;2.27;;
54929;SDS011;40833;53.238;6.576;2022-08-01T05:42:18;20.90;;;4.30;;
54929;SDS011;40833;53.238;6.576;2022-08-01T05:44:44;18.20;;;2.90;;
54929;SDS011;40833;53.238;6.576;2022-08-01T05:47:10;27.23;;;3.30;;
54929;SDS011;40833;53.238;6.576;2022-08-01T05:49:35;22.20;;;2.90;;
54929;SDS011;40833;53.238;6.576;2022-08-01T05:52:01;16.50;;;2.10;;
54929;SDS011;40833;53.238;6.576;2022-08-01T05:54:27;14.30;;;2.07;;
54929;SDS011;40833;53.238;6.576;2022-08-01T05:56:53;19.30;;;2.50;;
54929;SDS011;40833;53.238;6.576;2022-08-01T05:59:20;25.20;;;3.67;;
54929;SDS011;40833;53.238;6.576;2022-08-01T06:01:46;16.33;;;2.05;;
54929;SDS011;40833;53.238;6.576;2022-08-01T06:04:11;20.43;;;2.83;;
54929;SDS011;40833;53.238;6.576;2022-08-01T06:06:37;20.40;;;3.10;;
54929;SDS011;40833;53.238;6.576;2022-08-01T06:09:03;19.60;;;2.80;;
54929;SDS011;40833;53.238;6.576;2022-08-01T06:11:28;20.20;;;2.47;;
54929;SDS011;40833;53.238;6.576;2022-08-01T06:13:54;14.97;;;2.10;;
54929;SDS011;40833;53.238;6.576;2022-08-01T06:16:20;18.03;;;2.40;;
54929;SDS011;40833;53.238;6.576;2022-08-01T06:18:45;19.23;;;2.30;;
54929;SDS011;40833;53.238;6.576;2022-08-01T06:21:11;14.97;;;1.97;;
54929;SDS011;40833;53.238;6.576;2022-08-01T06:23:37;23.70;;;2.93;;
54929;SDS011;40833;53.238;6.576;2022-08-01T06:26:03;23.00;;;2.72;;
54929;SDS011;40833;53.238;6.576;2022-08-01T06:28:28;20.73;;;2.07;;
54929;SDS011;40833;53.238;6.576;2022-08-01T06:30:54;16.35;;;2.20;;
54929;SDS011;40833;53.238;6.576;2022-08-01T06:33:20;19.47;;;2.53;;
54929;SDS011;40833;53.238;6.576;2022-08-01T06:35:46;15.80;;;2.07;;
54929;SDS011;40833;53.238;6.576;2022-08-01T06:38:12;17.37;;;1.80;;
54929;SDS011;40833;53.238;6.576;2022-08-01T06:40:38;14.63;;;1.87;;
54929;SDS011;40833;53.238;6.576;2022-08-01T06:43:04;21.85;;;2.95;;
54929;SDS011;40833;53.238;6.576;2022-08-01T06:45:30;26.17;;;2.63;;
54929;SDS011;40833;53.238;6.576;2022-08-01T06:47:56;19.03;;;1.83;;
54929;SDS011;40833;53.238;6.576;2022-08-01T06:50:22;14.35;;;1.98;;
54929;SDS011;40833;53.238;6.576;2022-08-01T06:52:47;19.60;;;1.83;;
54929;SDS011;40833;53.238;6.576;2022-08-01T06:55:13;18.37;;;2.10;;
54929;SDS011;40833;53.238;6.576;2022-08-01T06:57:46;16.80;;;2.60;;
54929;SDS011;40833;53.238;6.576;2022-08-01T07:00:17;16.97;;;2.03;;
54929;SDS011;40833;53.238;6.576;2022-08-01T07:02:51;14.55;;;1.92;;
54929;SDS011;40833;53.238;6.576;2022-08-01T07:05:19;16.05;;;1.45;;
54929;SDS011;40833;53.238;6.576;2022-08-01T07:07:45;14.57;;;1.73;;
54929;SDS011;40833;53.238;6.576;2022-08-01T07:10:11;14.27;;;1.83;;
54929;SDS011;40833;53.238;6.576;2022-08-01T07:12:37;15.70;;;1.90;;
54929;SDS011;40833;53.238;6.576;2022-08-01T07:15:06;13.30;;;1.80;;
54929;SDS011;40833;53.238;6.576;2022-08-01T07:17:38;16.40;;;1.83;;
54929;SDS011;40833;53.238;6.576;2022-08-01T07:20:05;13.40;;;1.80;;
54929;SDS011;40833;53.238;6.576;2022-08-01T07:22:32;11.68;;;1.30;;
54929;SDS011;40833;53.238;6.576;2022-08-01T07:24:58;11.07;;;1.42;;
54929;SDS011;40833;53.238;6.576;2022-08-01T07:27:24;13.38;;;2.17;;
54929;SDS011;40833;53.238;6.576;2022-08-01T07:29:50;22.98;;;1.85;;
54929;SDS011;40833;53.238;6.576;2022-08-01T07:32:15;13.50;;;1.98;;
54929;SDS011;40833;53.238;6.576;2022-08-01T07:34:41;16.08;;;2.13;;
54929;SDS011;40833;53.238;6.576;2022-08-01T07:37:06;22.48;;;1.63;;
54929;SDS011;40833;53.238;6.576;2022-08-01T07:39:32;16.35;;;1.48;;
54929;SDS011;40833;53.238;6.576;2022-08-01T07:41:58;17.67;;;1.95;;
54929;SDS011;40833;53.238;6.576;2022-08-01T07:44:24;16.35;;;1.73;;
54929;SDS011;40833;53.238;6.576;2022-08-01T07:46:49;13.18;;;1.88;;
54929;SDS011;40833;53.238;6.576;2022-08-01T07:49:15;12.07;;;1.40;;
54929;SDS011;40833;53.238;6.576;2022-08-01T07:51:40;10.90;;;1.47;;
54929;SDS011;40833;53.238;6.576;2022-08-01T07:54:06;12.43;;;1.48;;
54929;SDS011;40833;53.238;6.576;2022-08-01T07:56:32;12.27;;;1.42;;
54929;SDS011;40833;53.238;6.576;2022-08-01T07:58:58;11.18;;;1.42;;
54929;SDS011;40833;53.238;6.576;2022-08-01T08:01:24;12.65;;;1.00;;
54929;SDS011;40833;53.238;6.576;2022-08-01T08:03:50;19.60;;;2.10;;
54929;SDS011;40833;53.238;6.576;2022-08-01T08:06:16;17.98;;;1.30;;
54929;SDS011;40833;53.238;6.576;2022-08-01T08:08:42;14.52;;;1.30;;
54929;SDS011;40833;53.238;6.576;2022-08-01T08:11:07;13.88;;;1.70;;
54929;SDS011;40833;53.238;6.576;2022-08-01T08:13:33;10.30;;;1.38;;
54929;SDS011;40833;53.238;6.576;2022-08-01T08:15:59;19.27;;;1.60;;
54929;SDS011;40833;53.238;6.576;2022-08-01T08:18:25;14.23;;;1.48;;
54929;SDS011;40833;53.238;6.576;2022-08-01T08:20:51;12.85;;;0.95;;
54929;SDS011;40833;53.238;6.576;2022-08-01T08:23:16;12.60;;;1.90;;
54929;SDS011;40833;53.238;6.576;2022-08-01T08:26:01;12.80;;;1.30;;
54929;SDS011;40833;53.238;6.576;2022-08-01T08:28:26;11.50;;;1.42;;
54929;SDS011;40833;53.238;6.576;2022-08-01T08:30:52;16.58;;;1.13;;
54929;SDS011;40833;53.238;6.576;2022-08-01T08:33:19;16.60;;;2.38;;
54929;SDS011;40833;53.238;6.576;2022-08-01T08:35:45;11.82;;;1.23;;
54929;SDS011;40833;53.238;6.576;2022-08-01T08:38:13;15.93;;;1.52;;
54929;SDS011;40833;53.238;6.576;2022-08-01T08:40:39;16.02;;;1.30;;
54929;SDS011;40833;53.238;6.576;2022-08-01T08:43:05;9.95;;;1.55;;
54929;SDS011;40833;53.238;6.576;2022-08-01T08:45:32;11.77;;;1.17;;
54929;SDS011;40833;53.238;6.576;2022-08-01T08:47:58;11.57;;;0.88;;
54929;SDS011;40833;53.238;6.576;2022-08-01T08:50:25;12.30;;;1.45;;
54929;SDS011;40833;53.238;6.576;2022-08-01T08:52:55;12.77;;;1.10;;
54929;SDS011;40833;53.238;6.576;2022-08-01T08:57:51;15.07;;;1.70;;
54929;SDS011;40833;53.238;6.576;2022-08-01T09:00:18;11.30;;;0.90;;
54929;SDS011;40833;53.238;6.576;2022-08-01T09:02:44;7.72;;;0.70;;
54929;SDS011;40833;53.238;6.576;2022-08-01T09:05:11;13.50;;;0.65;;
54929;SDS011;40833;53.238;6.576;2022-08-01T09:07:38;12.15;;;1.77;;
54929;SDS011;40833;53.238;6.576;2022-08-01T09:10:04;13.77;;;1.00;;
54929;SDS011;40833;53.238;6.576;2022-08-01T09:12:30;7.55;;;0.90;;
54929;SDS011;40833;53.238;6.576;2022-08-01T09:14:56;11.05;;;1.17;;
54929;SDS011;40833;53.238;6.576;2022-08-01T09:17:22;14.38;;;1.75;;
54929;SDS011;40833;53.238;6.576;2022-08-01T09:19:49;10.82;;;1.33;;
54929;SDS011;40833;53.238;6.576;2022-08-01T09:22:18;12.23;;;0.80;;
54929;SDS011;40833;53.238;6.576;2022-08-01T09:27:35;9.20;;;1.00;;
54929;SDS011;40833;53.238;6.576;2022-08-01T09:30:14;12.57;;;1.35;;
54929;SDS011;40833;53.238;6.576;2022-08-01T09:32:57;10.93;;;1.02;;
54929;SDS011;40833;53.238;6.576;2022-08-01T09:35:28;10.13;;;0.75;;
54929;SDS011;40833;53.238;6.576;2022-08-01T09:40:55;11.90;;;1.27;;
54929;SDS011;40833;53.238;6.576;2022-08-01T09:43:23;11.68;;;0.90;;
54929;SDS011;40833;53.238;6.576;2022-08-01T09:45:53;11.32;;;1.05;;
54929;SDS011;40833;53.238;6.576;2022-08-01T09:48:22;6.75;;;1.13;;
54929;SDS011;40833;53.238;6.576;2022-08-01T09:50:52;10.85;;;0.80;;
54929;SDS011;40833;53.238;6.576;2022-08-01T09:53:18;8.20;;;0.93;;
54929;SDS011;40833;53.238;6.576;2022-08-01T09:55:44;8.93;;;0.88;;
54929;SDS011;40833;53.238;6.576;2022-08-01T09:58:10;13.60;;;1.45;;
54929;SDS011;40833;53.238;6.576;2022-08-01T10:00:37;10.07;;;0.98;;
54929;SDS011;40833;53.238;6.576;2022-08-01T10:03:23;6.00;;;0.57;;
54929;SDS011;40833;53.238;6.576;2022-08-01T10:05:52;7.88;;;0.70;;
54929;SDS011;40833;53.238;6.576;2022-08-01T10:08:22;3.83;;;0.80;;
54929;SDS011;40833;53.238;6.576;2022-08-01T10:11:08;18.98;;;1.30;;
54929;SDS011;40833;53.238;6.576;2022-08-01T10:13:35;8.85;;;1.33;;
54929;SDS011;40833;53.238;6.576;2022-08-01T10:16:01;7.45;;;1.10;;
54929;SDS011;40833;53.238;6.576;2022-08-01T10:18:32;11.23;;;1.23;;
54929;SDS011;40833;53.238;6.576;2022-08-01T10:20:59;7.15;;;0.65;;
54929;SDS011;40833;53.238;6.576;2022-08-01T10:23:26;6.35;;;0.80;;
54929;SDS011;40833;53.238;6.576;2022-08-01T10:25:55;5.38;;;0.52;;
54929;SDS011;40833;53.238;6.576;2022-08-01T10:28:23;9.43;;;0.70;;
54929;SDS011;40833;53.238;6.576;2022-08-01T10:30:51;7.35;;;0.63;;
54929;SDS011;40833;53.238;6.576;2022-08-01T10:33:17;9.57;;;0.60;;
54929;SDS011;40833;53.238;6.576;2022-08-01T10:35:49;5.85;;;0.75;;
54929;SDS011;40833;53.238;6.576;2022-08-01T10:38:15;10.27;;;0.85;;
54929;SDS011;40833;53.238;6.576;2022-08-01T10:40:42;5.13;;;0.57;;
54929;SDS011;40833;53.238;6.576;2022-08-01T10:43:12;9.88;;;0.80;;
54929;SDS011;40833;53.238;6.576;2022-08-01T10:45:42;8.60;;;0.68;;
54929;SDS011;40833;53.238;6.576;2022-08-01T10:48:16;5.43;;;0.52;;
54929;SDS011;40833;53.238;6.576;2022-08-01T10:50:51;5.82;;;0.50;;
54929;SDS011;40833;53.238;6.576;2022-08-01T10:53:23;6.82;;;1.70;;
54929;SDS011;40833;53.238;6.576;2022-08-01T10:55:57;10.00;;;0.63;;
54929;SDS011;40833;53.238;6.576;2022-08-01T10:58:32;9.27;;;0.88;;
54929;SDS011;40833;53.238;6.576;2022-08-01T11:01:18;7.15;;;0.60;;
54929;SDS011;40833;53.238;6.576;2022-08-01T11:09:03;4.25;;;0.50;;
54929;SDS011;40833;53.238;6.576;2022-08-01T11:12:06;6.00;;;0.90;;
54929;SDS011;40833;53.238;6.576;2022-08-01T11:20:09;5.10;;;0.47;;
54929;SDS011;40833;53.238;6.576;2022-08-01T11:30:43;3.55;;;0.57;;
54929;SDS011;40833;53.238;6.576;2022-08-01T11:33:11;10.32;;;0.80;;
54929;SDS011;40833;53.238;6.576;2022-08-01T11:35:38;6.80;;;1.05;;
54929;SDS011;40833;53.238;6.576;2022-08-01T11:38:48;5.60;;;0.52;;
54929;SDS011;40833;53.238;6.576;2022-08-01T11:41:35;7.13;;;0.52;;
54929;SDS011;40833;53.238;6.576;2022-08-01T11:44:06;5.97;;;0.50;;
54929;SDS011;40833;53.238;6.576;2022-08-01T11:54:29;6.50;;;0.38;;
54929;SDS011;40833;53.238;6.576;2022-08-01T11:56:57;4.45;;;0.20;;
54929;SDS011;40833;53.238;6.576;2022-08-01T11:59:25;7.30;;;0.65;;
54929;SDS011;40833;53.238;6.576;2022-08-01T12:01:51;7.07;;;0.93;;
54929;SDS011;40833;53.238;6.576;2022-08-01T12:04:17;5.80;;;0.75;;
54929;SDS011;40833;53.238;6.576;2022-08-01T12:06:43;6.85;;;0.40;;
54929;SDS011;40833;53.238;6.576;2022-08-01T12:09:16;6.93;;;0.90;;
54929;SDS011;40833;53.238;6.576;2022-08-01T12:11:43;3.28;;;0.38;;
54929;SDS011;40833;53.238;6.576;2022-08-01T12:14:19;8.93;;;0.73;;
54929;SDS011;40833;53.238;6.576;2022-08-01T12:16:50;4.43;;;0.35;;
54929;SDS011;40833;53.238;6.576;2022-08-01T12:19:19;6.10;;;0.70;;
54929;SDS011;40833;53.238;6.576;2022-08-01T12:22:04;3.13;;;0.50;;
54929;SDS011;40833;53.238;6.576;2022-08-01T12:24:34;4.25;;;0.38;;
54929;SDS011;40833;53.238;6.576;2022-08-01T12:27:00;4.78;;;0.30;;
54929;SDS011;40833;53.238;6.576;2022-08-01T12:29:33;4.68;;;0.45;;
54929;SDS011;40833;53.238;6.576;2022-08-01T12:32:04;6.10;;;0.75;;
54929;SDS011;40833;53.238;6.576;2022-08-01T12:34:57;5.88;;;0.60;;
54929;SDS011;40833;53.238;6.576;2022-08-01T12:37:31;7.47;;;0.90;;
54929;SDS011;40833;53.238;6.576;2022-08-01T12:40:00;9.52;;;1.40;;
54929;SDS011;40833;53.238;6.576;2022-08-01T12:42:27;7.07;;;0.90;;
54929;SDS011;40833;53.238;6.576;2022-08-01T12:44:53;9.98;;;0.60;;
54929;SDS011;40833;53.238;6.576;2022-08-01T12:47:23;5.97;;;0.68;;
54929;SDS011;40833;53.238;6.576;2022-08-01T12:49:52;6.57;;;0.65;;
54929;SDS011;40833;53.238;6.576;2022-08-01T12:52:18;9.20;;;1.23;;
54929;SDS011;40833;53.238;6.576;2022-08-01T12:55:03;5.32;;;0.68;;
54929;SDS011;40833;53.238;6.576;2022-08-01T12:57:32;8.80;;;0.45;;
54929;SDS011;40833;53.238;6.576;2022-08-01T13:00:05;9.45;;;0.75;;
54929;SDS011;40833;53.238;6.576;2022-08-01T13:02:38;3.70;;;0.55;;
54929;SDS011;40833;53.238;6.576;2022-08-01T13:05:05;7.90;;;0.63;;
54929;SDS011;40833;53.238;6.576;2022-08-01T13:08:08;7.82;;;0.70;;
54929;SDS011;40833;53.238;6.576;2022-08-01T13:12:54;5.03;;;0.60;;
54929;SDS011;40833;53.238;6.576;2022-08-01T13:15:27;5.60;;;0.82;;
54929;SDS011;40833;53.238;6.576;2022-08-01T13:17:56;8.18;;;1.00;;
54929;SDS011;40833;53.238;6.576;2022-08-01T13:20:28;9.38;;;0.88;;
54929;SDS011;40833;53.238;6.576;2022-08-01T13:22:55;6.78;;;1.10;;
54929;SDS011;40833;53.238;6.576;2022-08-01T13:25:54;7.57;;;1.00;;
54929;SDS011;40833;53.238;6.576;2022-08-01T13:28:24;7.70;;;0.77;;
54929;SDS011;40833;53.238;6.576;2022-08-01T13:30:52;5.93;;;0.88;;
54929;SDS011;40833;53.238;6.576;2022-08-01T13:33:19;7.55;;;0.85;;
54929;SDS011;40833;53.238;6.576;2022-08-01T13:35:45;6.38;;;0.52;;
54929;SDS011;40833;53.238;6.576;2022-08-01T13:38:12;6.85;;;0.98;;
54929;SDS011;40833;53.238;6.576;2022-08-01T13:40:38;6.65;;;0.40;;
54929;SDS011;40833;53.238;6.576;2022-08-01T13:43:04;5.55;;;0.60;;
54929;SDS011;40833;53.238;6.576;2022-08-01T13:45:30;3.35;;;0.60;;
54929;SDS011;40833;53.238;6.576;2022-08-01T13:47:56;7.32;;;0.55;;
54929;SDS011;40833;53.238;6.576;2022-08-01T13:50:22;6.90;;;0.82;;
54929;SDS011;40833;53.238;6.576;2022-08-01T13:52:47;4.07;;;0.40;;
54929;SDS011;40833;53.238;6.576;2022-08-01T13:55:19;5.95;;;0.73;;
54929;SDS011;40833;53.238;6.576;2022-08-01T13:57:44;5.68;;;0.73;;
54929;SDS011;40833;53.238;6.576;2022-08-01T14:00:10;5.10;;;0.80;;
54929;SDS011;40833;53.238;6.576;2022-08-01T14:02:36;9.20;;;1.38;;
54929;SDS011;40833;53.238;6.576;2022-08-01T14:05:02;7.72;;;1.27;;
54929;SDS011;40833;53.238;6.576;2022-08-01T14:07:28;6.93;;;1.15;;
54929;SDS011;40833;53.238;6.576;2022-08-01T14:09:53;4.00;;;0.60;;
54929;SDS011;40833;53.238;6.576;2022-08-01T14:12:19;7.32;;;0.80;;
54929;SDS011;40833;53.238;6.576;2022-08-01T14:14:45;4.22;;;0.50;;
54929;SDS011;40833;53.238;6.576;2022-08-01T14:17:11;6.00;;;0.80;;
54929;SDS011;40833;53.238;6.576;2022-08-01T14:19:36;6.22;;;0.68;;
54929;SDS011;40833;53.238;6.576;2022-08-01T14:22:02;3.13;;;0.68;;
54929;SDS011;40833;53.238;6.576;2022-08-01T14:24:28;7.07;;;0.50;;
54929;SDS011;40833;53.238;6.576;2022-08-01T14:26:53;7.88;;;0.90;;
54929;SDS011;40833;53.238;6.576;2022-08-01T14:29:19;8.95;;;1.20;;
54929;SDS011;40833;53.238;6.576;2022-08-01T14:31:48;5.30;;;0.70;;
54929;SDS011;40833;53.238;6.576;2022-08-01T14:34:13;5.70;;;0.82;;
54929;SDS011;40833;53.238;6.576;2022-08-01T14:36:39;7.15;;;1.02;;
54929;SDS011;40833;53.238;6.576;2022-08-01T14:39:05;7.70;;;1.23;;
54929;SDS011;40833;53.238;6.576;2022-08-01T14:41:31;5.68;;;0.73;;
54929;SDS011;40833;53.238;6.576;2022-08-01T14:43:57;8.82;;;0.93;;
54929;SDS011;40833;53.238;6.576;2022-08-01T14:46:24;8.60;;;0.85;;
54929;SDS011;40833;53.238;6.576;2022-08-01T14:48:50;5.45;;;0.70;;
54929;SDS011;40833;53.238;6.576;2022-08-01T14:51:16;7.60;;;1.17;;
54929;SDS011;40833;53.238;6.576;2022-08-01T14:53:41;7.50;;;0.82;;
54929;SDS011;40833;53.238;6.576;2022-08-01T14:56:07;12.80;;;0.88;;
54929;SDS011;40833;53.238;6.576;2022-08-01T14:58:33;9.23;;;0.80;;
54929;SDS011;40833;53.238;6.576;2022-08-01T15:00:59;9.25;;;0.80;;
54929;SDS011;40833;53.238;6.576;2022-08-01T15:03:25;9.07;;;0.82;;
54929;SDS011;40833;53.238;6.576;2022-08-01T15:08:22;7.93;;;0.70;;
54929;SDS011;40833;53.238;6.576;2022-08-01T15:10:48;6.72;;;1.17;;
54929;SDS011;40833;53.238;6.576;2022-08-01T15:13:13;7.57;;;0.95;;
54929;SDS011;40833;53.238;6.576;2022-08-01T15:15:39;4.68;;;0.68;;
54929;SDS011;40833;53.238;6.576;2022-08-01T15:18:05;6.55;;;0.88;;
54929;SDS011;40833;53.238;6.576;2022-08-01T15:20:31;6.20;;;1.00;;
54929;SDS011;40833;53.238;6.576;2022-08-01T15:22:58;4.95;;;0.60;;
54929;SDS011;40833;53.238;6.576;2022-08-01T15:25:23;5.45;;;0.73;;
54929;SDS011;40833;53.238;6.576;2022-08-01T15:27:49;7.22;;;0.55;;
54929;SDS011;40833;53.238;6.576;2022-08-01T15:30:15;6.07;;;0.75;;
54929;SDS011;40833;53.238;6.576;2022-08-01T15:32:41;5.30;;;0.57;;
54929;SDS011;40833;53.238;6.576;2022-08-01T15:35:08;7.10;;;0.70;;
54929;SDS011;40833;53.238;6.576;2022-08-01T15:37:35;8.98;;;0.60;;
54929;SDS011;40833;53.238;6.576;2022-08-01T15:40:00;5.13;;;0.68;;
54929;SDS011;40833;53.238;6.576;2022-08-01T15:42:26;5.18;;;0.75;;
54929;SDS011;40833;53.238;6.576;2022-08-01T15:44:52;6.47;;;0.88;;
54929;SDS011;40833;53.238;6.576;2022-08-01T15:47:18;7.05;;;0.80;;
54929;SDS011;40833;53.238;6.576;2022-08-01T15:49:44;2.78;;;0.70;;